AirNav   Duncan Aviation - Near you to keep you flying
 
 502 users online  

4OA8 Bowman Airport
Piqua, Ohio, USA

GOING TO PIQUA?


FAA INFORMATION EFFECTIVE 07 OCTOBER 2021

Location

FAA Identifier: 4OA8
Lat/Long: 40-06-31.0000N 084-17-59.0000W
40-06.516667N 084-17.983333W
40.1086111,-84.2997222
(estimated)
Elevation: 980 ft. / 299 m (estimated)
From city: 2 miles SW of PIQUA, OH
Time zone: UTC -4 (UTC -5 during Standard Time)
Zip code: 45356

Airport Operations

Airport use: Private use. Permission required prior to landing
Activation date: 07/2004
Control tower: no
ARTCC: INDIANAPOLIS CENTER
FSS: DAYTON FLIGHT SERVICE STATION
Attendance: UNATNDD
Pattern altitude: 1380 ft. MSL
Segmented circle: no
Lights: ACTVT LIRL RY 18/36 - 122.725.

Airport Communications

WX AWOS-3 at SCA (11 nm NE): 120.425 (937-492-3683)
WX AWOS-3PT at VES (12 nm NW): 125.9 (937-526-3154)
WX ASOS at DAY (13 nm S): PHONE 937-415-6819

Nearby radio navigation aids

VOR radial/distance  VOR name  Freq  Var
DQNr040/7.1DAYTON VOR/DME114.5001W
RODr233/15.9ROSEWOOD VORTAC117.5005W

 
NDB name  Hdg/Dist  Freq  Var  ID
HOOK FIELD015/37.223904WHKF .... -.- ..-.

Airport Services

Runway Information

Runway 18/36

Dimensions: 2000 x 100 ft. / 610 x 30 m
Surface: turf
Runway edge lights: low intensity
RUNWAY 18  RUNWAY 36
Traffic pattern: leftright

Airport Ownership and Management from official FAA records

Ownership: Privately-owned
Owner: LES BOWMAN
9249 S BROADWAY UNIT 200
HGHLNDS RANCH, CO 80129-5692
Phone 937-603-3456
Manager: LES BOWMAN
9249 S BROADWAY UNIT 200
HGHLNDS RANCH, CO 80129-5692
Phone 937-603-3456

Airport Operational Statistics

Aircraft based on the field: 2
Single engine airplanes: 2
    

Additional Remarks

ALL TFC REMAIN EAST OF ARPT.
REQUESTS TO BE LISTED ON THE CINCINNATI SECTIONAL CHART.
FOR CD CTC COLUMBUS APCH AT 614-338-8537

Instrument Procedures

There are no published instrument procedures at 4OA8.

Some nearby airports with instrument procedures:

I17 - Piqua Airport/Hartzell Field (3 nm N)
KSCA - Sidney Municipal Airport (11 nm NE)
KVES - Darke County Airport (12 nm NW)
3I7 - Dayton-Phillipsburg Airport (13 nm S)
KDAY - James M Cox Dayton International Airport (13 nm S)
 
Loc | Ops | Rwys | IFR | FBO | Links
Com | Nav | Svcs | Stats | Notes
Area around 4OA8 (Bowman Airport)
 
Road maps at: MapQuest Bing Google
 
Aerial photo
WARNING: Photo may not be current or correct
Aerial photo of 4OA8 (Bowman Airport)
Photo taken 14-Apr-2011
looking southeast.

Do you have a better or more recent aerial photo of Bowman Airport that you would like to share? If so, please send us your photo.

 
Sectional chart

 
Airport distance calculator
Flying to Bowman Airport? Find the distance to fly.

From to 4OA8

Sunrise and sunset
Times for 28-Oct-2021
 Local
(UTC-4)
 Zulu
(UTC)
Morning civil twilight07:3511:35
Sunrise08:0312:03
Sunset18:3922:39
Evening civil twilight19:0723:07

Current date and time
Zulu (UTC)  28-Oct-2021 05:55:51
Local (UTC-4)  28-Oct-2021 01:55:51
 
METAR
KVES 
12nm NW 
280535Z AUTO 12013KT 10SM OVC011 08/07 A2984 RMK AO2
KDAY 
13nm S 
280456Z 12011G16KT 10SM OVC010 09/06 A2987 RMK AO2 SLP115 T00940056 401170000
KFFO 
21nm SE 
280456Z AUTO 11008KT 10SM OVC011 09/05 A2986 RMK AO2 SLP117 T00940052 401031009
KAXV 
23nm N 
280535Z AUTO 11005KT 10SM OVC011 09/07 A2986 RMK AO2
TAF
KDAY 
13nm S 
271941Z 2720/2818 07010KT P6SM BKN017 BKN250 FM280200 09004KT P6SM SCT050 FM280500 11005KT P6SM BKN025 FM280700 10005KT P6SM BKN015 FM281200 10011KT P6SM BKN050
NOTAMs
Click for the latest NOTAMs
NOTAMs are issued by the DoD/FAA and will open in a separate window not controlled by AirNav.

 

 
 

Would you like to see your business listed on this page?

 If your business provides an interesting product or service to pilots, flight crews, aircraft, or users of the Bowman Airport, you should consider listing it here.  To start the listing process, click on the button below
 
Add a business
 

Other Pages about Bowman Airport

Update a link
 
Copyright © AirNav, LLC. All rights reserved. Privacy Policy  Contact